Time;durP1;ratioP1;P1;durP2;ratioP2;P2;SDS_P1;SDS_P2;PMS_P1;PMS_P2;Temp;Humidity;BMP_temperature;BMP_pressure;BME280_temperature;BME280_humidity;BME280_pressure;Samples;Min_cycle;Max_cycle;Signal;HPM_P1;HPM_P2
2022/10/14 00:02:05;;;;;;;18.20;3.20;;;9.90;99.90;;;;;;5017224;28;20212;-88
2022/10/14 00:04:30;;;;;;;3.10;2.50;;;9.90;99.90;;;;;;4996960;28;20224;-87
2022/10/14 00:06:56;;;;;;;2.83;2.30;;;9.90;99.90;;;;;;4999197;28;20291;-87
2022/10/14 00:09:22;;;;;;;3.90;2.37;;;9.80;99.90;;;;;;4999109;28;20223;-87
2022/10/14 00:11:48;;;;;;;12.53;3.23;;;9.80;99.90;;;;;;4998596;28;20278;-86
2022/10/14 00:14:18;;;;;;;23.10;2.93;;;9.80;99.90;;;;;;4991390;28;20223;-87
2022/10/14 00:16:46;;;;;;;2.37;2.13;;;9.80;99.90;;;;;;4987546;28;20224;-87
2022/10/14 00:19:12;;;;;;;13.17;2.10;;;9.80;99.90;;;;;;5003639;28;20641;-86
2022/10/14 00:21:40;;;;;;;5.77;2.93;;;9.80;99.90;;;;;;4988032;28;20654;-87
2022/10/14 00:24:07;;;;;;;3.93;2.73;;;9.90;99.90;;;;;;4987089;28;20220;-87
2022/10/14 00:26:35;;;;;;;10.10;3.00;;;9.90;99.90;;;;;;4980071;28;20581;-86
2022/10/14 00:29:02;;;;;;;2.13;1.93;;;9.80;99.90;;;;;;4987982;28;20216;-88
2022/10/14 00:31:28;;;;;;;21.50;3.10;;;9.80;99.90;;;;;;5000977;28;20220;-87
2022/10/14 00:33:54;;;;;;;37.17;3.90;;;9.80;99.90;;;;;;4969652;28;20192;-86
2022/10/14 00:36:23;;;;;;;6.83;2.23;;;9.80;99.90;;;;;;4987803;28;20636;-86
2022/10/14 00:38:50;;;;;;;13.07;2.47;;;9.80;99.90;;;;;;4988197;28;20275;-87
2022/10/14 00:41:19;;;;;;;3.53;2.27;;;9.80;99.90;;;;;;4993087;28;20216;-87
2022/10/14 00:43:53;;;;;;;17.67;2.60;;;9.80;99.90;;;;;;4974528;28;20303;-86
2022/10/14 00:46:18;;;;;;;14.60;2.27;;;9.80;99.90;;;;;;4986432;28;21043;-86
2022/10/14 00:48:44;;;;;;;3.60;2.30;;;9.80;99.90;;;;;;4987400;28;20207;-86
2022/10/14 00:51:10;;;;;;;3.23;2.30;;;9.80;99.90;;;;;;4996929;28;20280;-86
2022/10/14 00:53:41;;;;;;;8.33;1.83;;;9.70;99.90;;;;;;4990573;28;20230;-87
2022/10/14 00:56:08;;;;;;;2.50;2.30;;;9.70;99.90;;;;;;4976436;28;20286;-87
2022/10/14 00:58:34;;;;;;;18.83;3.00;;;9.70;99.90;;;;;;4951424;28;20216;-86
2022/10/14 01:01:00;;;;;;;30.50;3.00;;;9.60;99.90;;;;;;4950768;28;20250;-86
2022/10/14 01:03:25;;;;;;;3.17;1.83;;;9.60;99.90;;;;;;4967181;28;20260;-86
2022/10/14 01:05:57;;;;;;;5.23;3.50;;;9.50;99.90;;;;;;4972373;28;20246;-86
2022/10/14 01:09:04;;;;;;;10.70;1.93;;;9.50;99.90;;;;;;4993172;28;20805;-88
2022/10/14 01:11:35;;;;;;;24.80;3.53;;;9.50;99.90;;;;;;4966427;28;20232;-88
2022/10/14 01:14:23;;;;;;;23.33;3.00;;;9.50;99.90;;;;;;4964322;28;20252;-87
2022/10/14 01:16:58;;;;;;;1.70;1.50;;;9.50;99.90;;;;;;4974293;28;20243;-87
2022/10/14 01:19:47;;;;;;;4.80;3.17;;;9.40;99.90;;;;;;4987576;28;21297;-85
2022/10/14 01:22:31;;;;;;;12.33;2.30;;;9.40;99.90;;;;;;4986433;28;20199;-85
2022/10/14 01:25:37;;;;;;;14.13;2.30;;;9.30;99.90;;;;;;4986463;28;20378;-85
2022/10/14 01:28:41;;;;;;;2.23;1.87;;;9.30;99.90;;;;;;4949439;28;20287;-85
2022/10/14 01:31:13;;;;;;;2.80;1.83;;;9.30;99.90;;;;;;5002398;28;20214;-85
2022/10/14 01:33:45;;;;;;;2.20;2.00;;;9.30;99.90;;;;;;4986797;28;20709;-88
2022/10/14 01:36:28;;;;;;;13.60;2.20;;;9.30;99.90;;;;;;5002261;28;20693;-85
2022/10/14 01:39:16;;;;;;;2.07;1.80;;;9.30;99.90;;;;;;4987446;28;20238;-85
2022/10/14 01:42:17;;;;;;;3.30;2.33;;;9.20;99.90;;;;;;4986700;28;20227;-84
2022/10/14 01:44:47;;;;;;;10.77;1.93;;;9.20;99.90;;;;;;4985923;28;20313;-87
2022/10/14 01:47:18;;;;;;;5.67;1.90;;;9.20;99.90;;;;;;4987167;28;20227;-85
2022/10/14 01:49:50;;;;;;;2.37;2.17;;;9.10;99.90;;;;;;4987033;28;20219;-84
2022/10/14 01:52:26;;;;;;;16.03;2.57;;;9.20;99.90;;;;;;4986554;28;20547;-85
2022/10/14 01:54:56;;;;;;;1.60;1.27;;;9.10;99.90;;;;;;5002314;28;20673;-86
2022/10/14 01:57:27;;;;;;;7.33;3.20;;;9.10;99.90;;;;;;4985693;28;20314;-86
2022/10/14 01:59:55;;;;;;;9.53;2.07;;;9.20;99.90;;;;;;5001698;28;20282;-85
2022/10/14 02:02:22;;;;;;;18.50;2.60;;;9.20;99.90;;;;;;5001556;28;20306;-84
2022/10/14 02:04:48;;;;;;;3.50;2.77;;;9.10;99.90;;;;;;4985468;28;20222;-85
2022/10/14 02:07:44;;;;;;;13.57;3.03;;;9.10;99.90;;;;;;4986526;28;20195;-85
2022/10/14 02:10:40;;;;;;;2.17;1.97;;;9.00;99.90;;;;;;4985051;28;20238;-86
2022/10/14 02:13:27;;;;;;;1.60;1.50;;;9.00;99.90;;;;;;4987962;28;20665;-86
2022/10/14 02:16:15;;;;;;;2.53;1.57;;;8.90;99.90;;;;;;4990735;28;20239;-86
2022/10/14 02:19:01;;;;;;;2.20;1.90;;;8.80;99.90;;;;;;4991383;28;20242;-84
2022/10/14 02:22:13;;;;;;;2.40;1.80;;;8.70;99.90;;;;;;5005262;28;20222;-84
2022/10/14 02:24:43;;;;;;;3.43;2.07;;;8.80;99.90;;;;;;4982811;28;20359;-85
2022/10/14 02:27:13;;;;;;;1.90;1.70;;;8.70;99.90;;;;;;4988395;28;20788;-85
2022/10/14 02:29:43;;;;;;;2.23;1.83;;;8.70;99.90;;;;;;4983942;28;20251;-86
2022/10/14 02:32:10;;;;;;;2.73;2.53;;;8.80;99.90;;;;;;4990669;28;20227;-85
2022/10/14 02:34:36;;;;;;;2.47;2.20;;;8.80;99.90;;;;;;4952150;28;20271;-85
2022/10/14 02:37:03;;;;;;;1.60;1.50;;;8.70;99.90;;;;;;4986185;28;20185;-86
2022/10/14 02:39:33;;;;;;;4.93;2.63;;;8.70;99.90;;;;;;4998681;28;20238;-85
2022/10/14 02:41:59;;;;;;;5.50;2.87;;;8.60;99.90;;;;;;4999340;28;20239;-85
2022/10/14 02:44:25;;;;;;;10.43;2.07;;;8.60;99.90;;;;;;4981467;28;20594;-85
2022/10/14 02:46:53;;;;;;;3.10;2.67;;;8.60;99.90;;;;;;4979364;28;20230;-85
2022/10/14 02:49:18;;;;;;;3.97;3.43;;;8.60;99.90;;;;;;4979941;28;20600;-85
2022/10/14 02:51:44;;;;;;;2.93;2.50;;;8.60;99.90;;;;;;4989571;28;20200;-85
2022/10/14 02:54:10;;;;;;;2.93;1.37;;;8.60;99.90;;;;;;4990336;28;20235;-85
2022/10/14 02:56:36;;;;;;;3.20;2.67;;;8.70;99.90;;;;;;4959801;28;20327;-85
2022/10/14 02:59:01;;;;;;;2.30;2.10;;;8.70;99.90;;;;;;4953603;28;20256;-85
2022/10/14 03:01:27;;;;;;;6.60;2.47;;;8.60;99.90;;;;;;4936999;28;20231;-84
2022/10/14 03:03:53;;;;;;;2.57;2.30;;;8.60;99.90;;;;;;4929786;28;20196;-86
2022/10/14 03:06:18;;;;;;;2.70;2.13;;;8.70;99.90;;;;;;4971113;28;20220;-85
2022/10/14 03:08:44;;;;;;;12.20;2.67;;;8.70;99.90;;;;;;4995742;28;20641;-85
2022/10/14 03:11:10;;;;;;;4.87;3.83;;;8.80;99.90;;;;;;4998633;28;20211;-84
2022/10/14 03:13:35;;;;;;;9.00;3.50;;;8.80;99.90;;;;;;4965421;28;20731;-85
2022/10/14 03:16:01;;;;;;;5.57;2.73;;;8.80;99.90;;;;;;4998401;28;20208;-86
2022/10/14 03:18:27;;;;;;;2.77;2.33;;;8.80;99.90;;;;;;5004490;28;20227;-85
2022/10/14 03:20:53;;;;;;;3.33;2.97;;;8.80;99.90;;;;;;4997981;28;20373;-85
2022/10/14 03:23:18;;;;;;;3.13;2.13;;;8.80;99.90;;;;;;4997410;28;20212;-84
2022/10/14 03:25:44;;;;;;;3.30;1.83;;;8.80;99.90;;;;;;4996687;28;20226;-84
2022/10/14 03:28:11;;;;;;;2.23;2.03;;;8.80;99.90;;;;;;4998648;28;20200;-84
2022/10/14 03:30:37;;;;;;;2.47;2.27;;;8.90;99.90;;;;;;4988181;28;20184;-84
2022/10/14 03:33:02;;;;;;;4.27;2.63;;;8.90;99.90;;;;;;4972075;28;20385;-85
2022/10/14 03:35:28;;;;;;;13.30;1.90;;;8.90;99.90;;;;;;4971576;28;20343;-84
2022/10/14 03:37:54;;;;;;;10.17;2.20;;;8.90;99.90;;;;;;4997018;28;20219;-84
2022/10/14 03:40:20;;;;;;;4.70;3.60;;;9.00;99.90;;;;;;4997802;28;20203;-84
2022/10/14 03:42:47;;;;;;;4.10;3.20;;;8.90;99.90;;;;;;4999330;28;20200;-85
2022/10/14 03:45:13;;;;;;;3.50;2.37;;;9.00;99.90;;;;;;4989153;28;20244;-85
2022/10/14 03:47:38;;;;;;;3.97;3.47;;;9.10;99.90;;;;;;4959535;28;20602;-84
2022/10/14 03:50:05;;;;;;;4.10;2.83;;;9.20;99.90;;;;;;4960689;28;20228;-85
2022/10/14 03:52:31;;;;;;;2.93;2.00;;;9.20;99.90;;;;;;4986620;28;20362;-85
2022/10/14 03:54:57;;;;;;;3.47;2.80;;;9.20;99.90;;;;;;4988009;28;20302;-84
2022/10/14 03:57:23;;;;;;;9.13;2.73;;;9.20;99.90;;;;;;4986501;28;20282;-87
2022/10/14 03:59:48;;;;;;;3.73;3.30;;;9.30;99.90;;;;;;4977926;28;20227;-85
2022/10/14 04:02:14;;;;;;;3.57;2.87;;;9.40;99.90;;;;;;5012695;28;20227;-85
2022/10/14 04:04:40;;;;;;;9.47;3.37;;;9.50;99.90;;;;;;4996763;28;20219;-85
2022/10/14 04:07:06;;;;;;;10.67;2.67;;;9.60;99.90;;;;;;5010881;28;20198;-85
2022/10/14 04:09:31;;;;;;;9.40;3.33;;;9.70;99.90;;;;;;4996184;28;20194;-84
2022/10/14 04:11:57;;;;;;;36.70;5.67;;;9.80;99.90;;;;;;4979126;28;20682;-84
2022/10/14 04:14:24;;;;;;;3.43;3.13;;;9.90;99.90;;;;;;4990584;28;20227;-84
2022/10/14 04:16:49;;;;;;;4.30;3.10;;;10.10;99.90;;;;;;4979358;28;20224;-85
2022/10/14 04:19:15;;;;;;;5.07;3.07;;;10.20;99.90;;;;;;4953625;28;20200;-85
2022/10/14 04:21:41;;;;;;;4.47;2.70;;;10.20;99.90;;;;;;4997389;28;20899;-85
2022/10/14 04:24:07;;;;;;;8.57;4.60;;;10.30;99.90;;;;;;4983356;28;20793;-84
2022/10/14 04:26:32;;;;;;;35.43;4.70;;;10.30;99.90;;;;;;4967749;28;20295;-87
2022/10/14 04:28:58;;;;;;;23.20;5.33;;;10.30;99.90;;;;;;4980385;28;20683;-86
2022/10/14 04:31:24;;;;;;;10.13;4.27;;;10.40;99.90;;;;;;4992380;28;20222;-84
2022/10/14 04:33:50;;;;;;;8.07;4.57;;;10.30;99.90;;;;;;4968665;28;20499;-83
2022/10/14 04:36:15;;;;;;;10.77;3.07;;;10.40;99.90;;;;;;4949260;28;20315;-84
2022/10/14 04:38:41;;;;;;;7.17;4.23;;;10.50;99.90;;;;;;5001602;28;20216;-84
2022/10/14 04:41:07;;;;;;;20.97;4.47;;;10.50;99.90;;;;;;4998619;28;20231;-84
2022/10/14 04:43:33;;;;;;;8.67;4.27;;;10.50;99.90;;;;;;4933048;28;20224;-83
2022/10/14 04:45:59;;;;;;;5.33;4.20;;;10.50;99.90;;;;;;4932574;28;20237;-86
2022/10/14 04:48:25;;;;;;;15.03;5.17;;;10.50;99.90;;;;;;4964121;28;20744;-87
2022/10/14 04:50:52;;;;;;;25.20;5.17;;;10.60;99.90;;;;;;4979546;28;20212;-84
2022/10/14 04:53:18;;;;;;;12.47;5.50;;;10.60;99.90;;;;;;4984662;28;20216;-84
2022/10/14 04:55:45;;;;;;;7.07;3.67;;;10.70;99.90;;;;;;4984632;28;20231;-84
2022/10/14 04:58:11;;;;;;;15.80;3.90;;;10.80;99.90;;;;;;4983366;28;20192;-86
2022/10/14 05:00:37;;;;;;;29.20;5.63;;;10.80;99.90;;;;;;5000285;28;20191;-82
2022/10/14 05:03:03;;;;;;;34.17;4.20;;;10.90;99.90;;;;;;4990545;28;20689;-83
2022/10/14 05:05:28;;;;;;;34.73;4.20;;;10.90;99.90;;;;;;4990955;28;20263;-83
2022/10/14 05:07:54;;;;;;;7.87;3.70;;;11.00;99.90;;;;;;4989372;28;20238;-83
2022/10/14 05:10:21;;;;;;;108.37;8.60;;;11.10;99.90;;;;;;4967200;28;20732;-83
2022/10/14 05:12:46;;;;;;;48.27;5.67;;;11.10;99.90;;;;;;4986612;28;20511;-82
2022/10/14 05:15:12;;;;;;;27.00;5.57;;;11.10;99.90;;;;;;4965603;28;20263;-82
2022/10/14 05:17:38;;;;;;;28.13;4.57;;;11.10;99.90;;;;;;4964015;28;20267;-82
2022/10/14 05:20:05;;;;;;;36.87;3.77;;;11.10;99.90;;;;;;4972621;28;20236;-84
2022/10/14 05:22:31;;;;;;;8.27;4.67;;;11.10;99.90;;;;;;4984573;28;20303;-82
2022/10/14 05:24:57;;;;;;;18.33;5.90;;;11.20;99.90;;;;;;4985853;28;20220;-87
2022/10/14 05:27:22;;;;;;;23.23;4.93;;;11.20;99.90;;;;;;4984180;28;20216;-86
2022/10/14 05:29:48;;;;;;;61.40;7.93;;;11.20;99.90;;;;;;4937256;28;20225;-85
2022/10/14 05:32:15;;;;;;;36.97;7.90;;;11.20;99.90;;;;;;4948398;28;20232;-86
2022/10/14 05:34:41;;;;;;;45.13;5.13;;;11.20;99.90;;;;;;4978557;28;20216;-86
2022/10/14 05:37:06;;;;;;;18.93;3.30;;;11.20;99.90;;;;;;4965814;28;20520;-84
2022/10/14 05:39:32;;;;;;;36.60;4.93;;;11.10;99.90;;;;;;5011120;28;20688;-83
2022/10/14 05:41:58;;;;;;;28.90;3.20;;;11.00;99.90;;;;;;4989053;28;20238;-84
2022/10/14 05:44:24;;;;;;;27.60;4.67;;;10.90;99.90;;;;;;4960677;28;20714;-86
2022/10/14 05:46:49;;;;;;;4.07;2.57;;;10.90;99.90;;;;;;4946642;28;20246;-83
2022/10/14 05:49:15;;;;;;;8.60;3.40;;;10.90;99.90;;;;;;4949969;28;20220;-85
2022/10/14 05:51:41;;;;;;;19.50;3.13;;;10.90;99.90;;;;;;4993065;28;20186;-87
2022/10/14 05:54:06;;;;;;;35.03;2.83;;;10.90;99.90;;;;;;4992039;28;20354;-84
2022/10/14 05:56:32;;;;;;;17.60;3.80;;;10.90;99.90;;;;;;4995641;28;20278;-83
2022/10/14 05:58:58;;;;;;;23.90;3.97;;;10.80;99.90;;;;;;4992066;28;20327;-81
2022/10/14 06:01:24;;;;;;;16.20;5.63;;;10.80;99.90;;;;;;4992239;28;20759;-82
2022/10/14 06:03:50;;;;;;;33.73;3.77;;;10.80;99.90;;;;;;4997052;28;20742;-82
2022/10/14 06:06:16;;;;;;;15.43;5.13;;;10.80;99.90;;;;;;4989475;28;20306;-86
2022/10/14 06:08:42;;;;;;;6.07;3.73;;;10.80;99.90;;;;;;4991386;28;20760;-86
2022/10/14 06:11:08;;;;;;;47.27;5.10;;;10.80;99.90;;;;;;4991924;28;20301;-86
2022/10/14 06:13:35;;;;;;;38.23;5.83;;;10.80;99.90;;;;;;4975653;28;20678;-86
2022/10/14 06:16:08;;;;;;;59.93;5.57;;;10.90;99.90;;;;;;4985052;28;20266;-85
2022/10/14 06:18:35;;;;;;;20.10;4.50;;;10.90;99.90;;;;;;4984990;28;20671;-85
2022/10/14 06:21:02;;;;;;;20.90;6.60;;;11.00;99.90;;;;;;5007238;28;20779;-85
2022/10/14 06:23:28;;;;;;;24.20;7.63;;;11.00;99.90;;;;;;5011410;28;20216;-83
2022/10/14 06:25:54;;;;;;;11.50;5.37;;;11.00;99.90;;;;;;4995245;28;20570;-85
2022/10/14 06:28:20;;;;;;;12.87;3.27;;;11.00;99.90;;;;;;4979365;28;20196;-88
2022/10/14 06:30:53;;;;;;;29.97;4.80;;;10.90;99.90;;;;;;4994321;28;20192;-88
2022/10/14 06:33:19;;;;;;;10.73;4.00;;;11.00;99.90;;;;;;4986839;28;20219;-89
2022/10/14 06:35:46;;;;;;;10.80;5.10;;;11.00;99.90;;;;;;4971258;28;20714;-86
2022/10/14 06:38:13;;;;;;;14.00;4.37;;;11.10;99.90;;;;;;4995259;28;20382;-83
2022/10/14 06:40:39;;;;;;;19.73;5.57;;;11.10;99.90;;;;;;4994809;28;20828;-85
2022/10/14 06:43:05;;;;;;;72.23;6.20;;;11.20;99.90;;;;;;4992048;28;20731;-86
2022/10/14 06:45:31;;;;;;;8.97;5.13;;;11.20;99.90;;;;;;4984825;28;20240;-87
2022/10/14 06:47:57;;;;;;;12.60;5.30;;;11.20;99.90;;;;;;4984926;28;20266;-88
2022/10/14 06:50:23;;;;;;;10.20;4.77;;;11.30;99.90;;;;;;4992921;28;20211;-84
2022/10/14 06:52:49;;;;;;;19.77;5.47;;;11.30;99.90;;;;;;5009804;28;20696;-85
2022/10/14 06:55:15;;;;;;;6.90;3.73;;;11.30;99.90;;;;;;5008315;28;20247;-83
2022/10/14 06:57:42;;;;;;;14.40;5.00;;;11.30;99.90;;;;;;4992528;28;20219;-84
2022/10/14 07:00:09;;;;;;;11.30;4.97;;;11.30;99.90;;;;;;4972800;28;20228;-87
2022/10/14 07:02:37;;;;;;;10.63;5.50;;;11.30;99.90;;;;;;4951494;28;20279;-84
2022/10/14 07:05:03;;;;;;;53.77;7.73;;;11.30;99.90;;;;;;4997054;28;20237;-87
2022/10/14 07:07:30;;;;;;;26.93;6.27;;;11.40;99.90;;;;;;5011714;28;20227;-84
2022/10/14 07:09:57;;;;;;;21.53;7.37;;;11.40;99.90;;;;;;4997903;28;20194;-84
2022/10/14 07:12:23;;;;;;;22.73;7.53;;;11.40;99.90;;;;;;4968698;28;20360;-85
2022/10/14 07:14:49;;;;;;;26.80;6.13;;;11.40;99.90;;;;;;4990543;28;20231;-84
2022/10/14 07:17:15;;;;;;;27.57;6.23;;;11.40;99.90;;;;;;4980432;28;20215;-85
2022/10/14 07:19:41;;;;;;;36.30;7.23;;;11.40;99.90;;;;;;4998965;28;20215;-86
2022/10/14 07:22:06;;;;;;;38.03;6.93;;;11.30;99.90;;;;;;4965046;28;20187;-87
2022/10/14 07:24:32;;;;;;;17.63;5.60;;;11.20;99.90;;;;;;4972655;28;20280;-83
2022/10/14 07:26:58;;;;;;;22.47;8.60;;;11.20;99.90;;;;;;5009723;28;20255;-84
2022/10/14 07:29:24;;;;;;;15.87;6.30;;;11.20;99.90;;;;;;5012791;28;20255;-88
2022/10/14 07:31:49;;;;;;;33.27;8.07;;;11.30;99.90;;;;;;4987667;28;20221;-86
2022/10/14 07:34:15;;;;;;;47.67;9.30;;;11.30;99.90;;;;;;4954800;28;20255;-83
2022/10/14 07:36:41;;;;;;;41.10;8.00;;;11.40;99.90;;;;;;4996191;28;20219;-83
2022/10/14 07:39:07;;;;;;;38.93;7.90;;;11.40;99.90;;;;;;4968270;28;20228;-84
2022/10/14 07:41:33;;;;;;;10.83;6.20;;;11.40;99.90;;;;;;4951692;28;20259;-85
2022/10/14 07:44:05;;;;;;;54.80;6.70;;;11.50;99.90;;;;;;4935470;28;20666;-86
2022/10/14 07:46:33;;;;;;;40.93;8.47;;;11.50;99.90;;;;;;4974042;28;20238;-85
2022/10/14 07:49:03;;;;;;;19.23;5.77;;;11.50;99.90;;;;;;4995333;28;20183;-83
2022/10/14 07:51:29;;;;;;;24.43;6.20;;;11.50;99.90;;;;;;4986132;28;20626;-85
2022/10/14 07:53:56;;;;;;;42.90;9.90;;;11.50;99.90;;;;;;4939928;28;20236;-83
2022/10/14 07:56:22;;;;;;;12.37;8.20;;;11.70;99.90;;;;;;4983292;28;20227;-86
2022/10/14 07:58:48;;;;;;;13.80;6.20;;;11.80;99.90;;;;;;4968494;28;20686;-85
2022/10/14 08:01:15;;;;;;;14.90;7.43;;;11.80;99.90;;;;;;4970069;28;20314;-86
2022/10/14 08:03:42;;;;;;;14.03;7.63;;;11.90;99.90;;;;;;4987448;28;20267;-87
2022/10/14 08:06:07;;;;;;;10.53;6.80;;;11.80;99.90;;;;;;4986088;28;20216;-86
2022/10/14 08:08:34;;;;;;;20.93;8.20;;;11.90;99.90;;;;;;4968783;28;20219;-83
2022/10/14 08:11:20;;;;;;;21.47;7.50;;;11.90;99.90;;;;;;4994382;28;20230;-84
2022/10/14 08:13:47;;;;;;;11.47;7.07;;;11.90;99.90;;;;;;4977223;28;20216;-85
2022/10/14 08:16:15;;;;;;;13.63;7.00;;;12.00;99.90;;;;;;4986911;28;20208;-85
2022/10/14 08:18:42;;;;;;;19.63;6.63;;;12.10;99.90;;;;;;4987406;28;20180;-83
2022/10/14 08:21:07;;;;;;;15.17;8.53;;;12.10;99.90;;;;;;4936635;28;20229;-83
2022/10/14 08:23:33;;;;;;;12.33;7.90;;;12.20;99.90;;;;;;4967970;28;20220;-86
2022/10/14 08:25:59;;;;;;;15.43;6.40;;;12.20;99.90;;;;;;4991235;28;20224;-84
2022/10/14 08:28:24;;;;;;;15.90;7.00;;;12.30;99.90;;;;;;4987902;28;20212;-88
2022/10/14 08:30:52;;;;;;;17.90;8.40;;;12.70;99.90;;;;;;4991063;28;20560;-82
2022/10/14 08:33:18;;;;;;;16.93;6.77;;;13.20;99.90;;;;;;4995263;28;20770;-89
2022/10/14 08:35:44;;;;;;;13.30;8.77;;;13.20;99.90;;;;;;4996107;28;20231;-82
2022/10/14 08:38:10;;;;;;;10.47;7.37;;;13.10;99.90;;;;;;5011066;28;20228;-84
2022/10/14 08:41:08;;;;;;;13.73;6.60;;;13.10;99.90;;;;;;4992959;28;20220;-85
2022/10/14 08:43:42;;;;;;;15.03;7.47;;;13.10;99.90;;;;;;4973777;28;20230;-83
2022/10/14 08:46:22;;;;;;;13.57;7.37;;;13.10;99.90;;;;;;5000848;28;20240;-84
2022/10/14 08:48:53;;;;;;;13.13;8.40;;;13.00;99.90;;;;;;5001844;28;20191;-85
2022/10/14 08:51:20;;;;;;;10.47;7.37;;;13.00;99.90;;;;;;4985619;28;20223;-82
2022/10/14 08:53:55;;;;;;;9.67;5.33;;;13.00;99.90;;;;;;4976507;28;20254;-83
2022/10/14 08:56:22;;;;;;;12.83;7.23;;;12.90;99.90;;;;;;4994654;28;20230;-84
2022/10/14 08:58:50;;;;;;;14.40;8.40;;;12.90;99.90;;;;;;4993328;28;20298;-83
2022/10/14 09:01:27;;;;;;;9.03;6.27;;;13.00;99.90;;;;;;5008269;28;20185;-84
2022/10/14 09:04:04;;;;;;;13.87;7.60;;;12.90;99.90;;;;;;4985916;28;20207;-85
2022/10/14 09:06:37;;;;;;;9.73;5.73;;;12.90;99.90;;;;;;4964822;28;20208;-86
2022/10/14 09:09:24;;;;;;;15.17;6.97;;;13.00;99.90;;;;;;4980558;28;20227;-85
2022/10/14 09:12:06;;;;;;;10.63;6.60;;;13.00;99.90;;;;;;4983719;28;20219;-86
2022/10/14 09:14:46;;;;;;;17.07;6.53;;;13.10;99.90;;;;;;4983023;28;20336;-85
2022/10/14 09:17:19;;;;;;;11.67;6.50;;;13.20;99.90;;;;;;4985668;28;20242;-86
2022/10/14 09:19:55;;;;;;;14.47;7.17;;;13.20;99.90;;;;;;4984508;28;20419;-86
2022/10/14 09:22:20;;;;;;;15.10;7.17;;;13.40;99.90;;;;;;4999911;28;20183;-87
2022/10/14 09:24:47;;;;;;;13.67;7.07;;;13.40;99.90;;;;;;4984578;28;20214;-86
2022/10/14 09:27:16;;;;;;;10.93;6.70;;;13.40;99.90;;;;;;4967527;28;20216;-91
2022/10/14 09:29:44;;;;;;;17.03;8.00;;;13.30;99.90;;;;;;4970942;28;20299;-86
2022/10/14 09:32:32;;;;;;;10.93;6.87;;;13.50;99.90;;;;;;4987871;28;20227;-89
2022/10/14 09:34:58;;;;;;;13.33;6.73;;;13.50;99.90;;;;;;4988155;28;20258;-87
2022/10/14 09:37:30;;;;;;;12.57;8.50;;;13.50;99.90;;;;;;4983623;28;20222;-86
2022/10/14 09:40:07;;;;;;;18.10;8.40;;;13.70;99.90;;;;;;5000241;28;20278;-84
2022/10/14 09:42:43;;;;;;;13.93;6.63;;;13.80;99.90;;;;;;4983019;28;20294;-86
2022/10/14 09:45:15;;;;;;;15.50;7.67;;;13.90;99.90;;;;;;4980309;28;20243;-88
2022/10/14 09:47:49;;;;;;;11.90;7.43;;;13.80;99.90;;;;;;4998441;28;20231;-85
2022/10/14 09:50:31;;;;;;;14.97;6.97;;;13.70;99.90;;;;;;4989629;28;20695;-84
2022/10/14 09:53:03;;;;;;;13.63;7.37;;;13.80;99.90;;;;;;4988568;28;20215;-86
2022/10/14 09:55:30;;;;;;;13.97;7.63;;;13.70;99.90;;;;;;4983095;28;20724;-90
2022/10/14 09:58:04;;;;;;;12.80;5.87;;;13.70;99.90;;;;;;4967566;28;20195;-86
2022/10/14 10:00:33;;;;;;;9.53;7.43;;;13.70;99.90;;;;;;4979883;28;20220;-87
2022/10/14 10:02:59;;;;;;;12.63;6.40;;;13.60;99.90;;;;;;4963717;28;20223;-86
2022/10/14 10:05:27;;;;;;;16.47;8.07;;;13.60;99.90;;;;;;4987974;28;20219;-84
2022/10/14 10:08:16;;;;;;;12.33;7.50;;;13.60;99.90;;;;;;4989271;28;20208;-88
2022/10/14 10:10:58;;;;;;;11.87;6.87;;;13.70;99.90;;;;;;4977797;28;20227;-88
2022/10/14 10:13:43;;;;;;;11.20;5.73;;;13.70;99.90;;;;;;4970497;28;20218;-84
2022/10/14 10:16:19;;;;;;;12.63;5.40;;;13.70;99.90;;;;;;4992609;28;20204;-85
2022/10/14 10:18:45;;;;;;;11.67;5.20;;;13.70;99.90;;;;;;4984017;28;20270;-83
2022/10/14 10:21:23;;;;;;;15.80;7.13;;;13.80;99.90;;;;;;4951220;28;20760;-85
2022/10/14 10:24:00;;;;;;;14.27;5.93;;;13.80;99.90;;;;;;4990909;28;20230;-83
2022/10/14 10:26:31;;;;;;;11.13;5.50;;;13.90;99.90;;;;;;4979140;28;20219;-89
2022/10/14 10:29:01;;;;;;;14.73;6.83;;;14.00;99.90;;;;;;4985658;28;20793;-87
2022/10/14 10:31:41;;;;;;;9.80;6.70;;;14.10;99.90;;;;;;4969284;28;20297;-87
2022/10/14 10:35:01;;;;;;;12.70;6.80;;;14.10;99.90;;;;;;5011204;28;20191;-88
2022/10/14 10:37:30;;;;;;;7.03;4.40;;;14.30;99.90;;;;;;4989189;28;20314;-87
2022/10/14 10:40:08;;;;;;;18.20;5.97;;;14.30;99.90;;;;;;5008849;28;20240;-90
2022/10/14 10:42:38;;;;;;;12.07;5.30;;;14.30;99.90;;;;;;4996888;28;20692;-89
2022/10/14 10:45:33;;;;;;;14.20;6.07;;;14.50;99.90;;;;;;4989391;28;20354;-90
2022/10/14 10:48:13;;;;;;;10.87;4.70;;;14.50;99.90;;;;;;4987780;28;20231;-89
2022/10/14 10:51:06;;;;;;;10.23;5.67;;;14.60;99.90;;;;;;4993220;28;20246;-89
2022/10/14 10:53:54;;;;;;;12.40;6.87;;;14.50;99.90;;;;;;4988181;28;20247;-87
2022/10/14 10:56:26;;;;;;;7.07;4.53;;;14.50;99.90;;;;;;4998296;28;20259;-86
2022/10/14 10:59:02;;;;;;;8.20;4.93;;;14.50;99.90;;;;;;5003220;28;20332;-83
2022/10/14 11:01:50;;;;;;;11.97;4.60;;;14.60;99.90;;;;;;4972762;28;20227;-87
2022/10/14 11:04:24;;;;;;;11.83;4.90;;;14.70;99.90;;;;;;4989781;28;20195;-85
2022/10/14 11:12:55;;;;;;;12.17;6.07;;;14.70;99.90;;;;;;4969034;28;20220;-84
2022/10/14 11:15:41;;;;;;;11.53;4.80;;;14.60;99.90;;;;;;4999041;28;20240;-86
2022/10/14 11:18:13;;;;;;;7.33;3.93;;;14.70;99.90;;;;;;4982768;28;20220;-91
2022/10/14 11:21:00;;;;;;;7.70;4.17;;;14.70;99.90;;;;;;4967770;28;20224;-85
2022/10/14 11:23:41;;;;;;;6.40;3.37;;;14.80;99.90;;;;;;4999631;28;20217;-88
2022/10/14 11:26:28;;;;;;;6.00;4.83;;;14.90;99.90;;;;;;4966770;28;20217;-84
2022/10/14 11:29:21;;;;;;;7.60;4.27;;;14.90;99.90;;;;;;4998623;28;20227;-87
2022/10/14 11:31:57;;;;;;;4.90;3.07;;;15.00;99.90;;;;;;4982062;28;20236;-86
2022/10/14 11:34:49;;;;;;;9.50;3.30;;;14.80;99.90;;;;;;4967831;28;20235;-86
2022/10/14 11:37:24;;;;;;;6.73;3.23;;;14.80;99.90;;;;;;4982717;28;20251;-86
2022/10/14 11:39:49;;;;;;;5.23;3.13;;;14.90;99.90;;;;;;4966793;28;20177;-84
2022/10/14 11:42:37;;;;;;;4.07;2.60;;;14.90;99.90;;;;;;4998699;28;20217;-87
2022/10/14 11:45:12;;;;;;;7.27;3.70;;;14.90;99.90;;;;;;4981972;28;20267;-87
2022/10/14 11:47:39;;;;;;;4.00;2.70;;;14.90;99.90;;;;;;4982998;28;20310;-87
2022/10/14 11:50:13;;;;;;;4.20;2.67;;;14.90;99.90;;;;;;4975841;28;20220;-91
2022/10/14 11:52:48;;;;;;;5.63;3.20;;;14.90;99.90;;;;;;4988433;28;20245;-88
2022/10/14 11:55:25;;;;;;;4.90;2.97;;;15.00;99.90;;;;;;4994946;28;20194;-89
2022/10/14 11:57:55;;;;;;;6.27;3.07;;;14.80;99.90;;;;;;4995896;28;20178;-82
2022/10/14 12:00:24;;;;;;;5.40;3.00;;;14.90;99.90;;;;;;4998259;28;20215;-83
2022/10/14 12:03:08;;;;;;;3.87;2.37;;;14.90;99.90;;;;;;4995112;28;20749;-82
2022/10/14 12:05:58;;;;;;;4.33;2.80;;;14.90;99.90;;;;;;4991951;28;20330;-89
2022/10/14 12:08:45;;;;;;;6.83;4.00;;;14.90;99.90;;;;;;4981457;28;20220;-81
2022/10/14 12:11:40;;;;;;;4.40;2.90;;;14.80;99.90;;;;;;4993876;28;20223;-84
2022/10/14 12:14:31;;;;;;;3.67;2.67;;;14.90;99.90;;;;;;4999206;28;20243;-84
2022/10/14 12:16:59;;;;;;;4.73;2.60;;;14.80;99.90;;;;;;4982550;28;20975;-84
2022/10/14 12:19:27;;;;;;;3.53;2.60;;;14.90;99.90;;;;;;4971104;28;20669;-87
2022/10/14 12:22:07;;;;;;;5.50;3.47;;;14.80;99.90;;;;;;5008990;28;20211;-87
2022/10/14 12:24:38;;;;;;;4.57;3.27;;;14.80;99.90;;;;;;4995921;28;20300;-88
2022/10/14 12:27:08;;;;;;;5.83;2.57;;;14.80;99.90;;;;;;4986725;28;20750;-88
2022/10/14 12:29:46;;;;;;;3.37;2.80;;;14.80;99.90;;;;;;4990585;28;20223;-89
2022/10/14 12:32:20;;;;;;;6.77;4.03;;;14.80;99.90;;;;;;5010371;28;20215;-91
2022/10/14 12:34:54;;;;;;;4.50;2.70;;;14.80;99.90;;;;;;5014983;28;20215;-87
2022/10/14 12:37:22;;;;;;;4.17;3.77;;;14.90;99.90;;;;;;5002369;28;20223;-87
2022/10/14 12:39:51;;;;;;;3.20;2.33;;;14.90;99.90;;;;;;4987678;28;20611;-87
2022/10/14 12:42:18;;;;;;;4.97;3.23;;;14.90;99.90;;;;;;5002281;28;20219;-85
2022/10/14 12:44:50;;;;;;;6.33;3.83;;;14.90;99.90;;;;;;4940313;28;20792;-92
2022/10/14 12:47:33;;;;;;;7.43;3.40;;;14.90;99.90;;;;;;4977553;28;20594;-85
2022/10/14 12:50:30;;;;;;;5.30;3.43;;;14.80;99.90;;;;;;4985509;28;20713;-85
2022/10/14 12:53:02;;;;;;;4.10;2.83;;;14.90;99.90;;;;;;4989784;28;20987;-88
2022/10/14 12:55:30;;;;;;;6.60;3.87;;;14.90;99.90;;;;;;4995787;28;20689;-86
2022/10/14 12:58:01;;;;;;;2.27;1.90;;;14.90;99.90;;;;;;4996402;28;20191;-85
2022/10/14 13:00:32;;;;;;;9.27;4.53;;;14.90;99.90;;;;;;4998188;28;20652;-89
2022/10/14 13:03:01;;;;;;;4.40;2.60;;;14.90;99.90;;;;;;4989152;28;20247;-85
2022/10/14 13:05:46;;;;;;;4.20;2.77;;;14.90;99.90;;;;;;4986151;28;20227;-87
2022/10/14 13:08:14;;;;;;;3.97;2.37;;;15.00;99.90;;;;;;5006253;28;20219;-88
2022/10/14 13:10:43;;;;;;;4.37;2.60;;;15.00;99.90;;;;;;4996963;28;20661;-88
2022/10/14 13:13:37;;;;;;;3.77;2.50;;;15.00;99.90;;;;;;4993659;28;20642;-88